MembersPage/GergelyLezsak/RacingGPS

5Hz "Racing" - Bluetooth GPS module

Just got this "i-Blue 737 Pro Bluetooth GPS (5 Hz Edition)" unit for a reasonable price, and for the moment it seems fine.

11SL16bHS1L._SL500_AA120_.jpg

Possible advantage for racecar use is "fast" sampling @ 5Hz.

Data send speed and format is user configurable:

gpsview-setup.gif

(This is the default setting)

Corresponding NMEA output:

...

$GPGSA,A,1,,,,,,,,,,,,,,,*1E
$GPGSV,3,1,12,23,86,239,,20,66,091,,13,44,235,20,04,34,307,*76
$GPGSV,3,2,12,11,24,174,17,25,24,178,22,31,21,043,,17,18,252,27*7F
$GPGSV,3,3,12,07,06,186,,32,05,099,,02,03,321,,27,02,191,*7F
$GPRMC,113459.600,V,4729.7163,N,01902.5848,E,0.01,0.00,220408,,,N*76
$GPGGA,113459.800,4729.7148,N,01902.5885,E,0,2,,307.1,M,41.1,M,,*4B
$GPRMC,113459.800,V,4729.7148,N,01902.5885,E,0.01,0.00,220408,,,N*70
$GPGGA,113500.000,4729.7143,N,01902.5889,E,0,2,,307.1,M,41.1,M,,*49
$GPRMC,113500.000,V,4729.7143,N,01902.5889,E,0.01,0.00,220408,,,N*72
$GPGGA,113500.200,4729.7141,N,01902.5896,E,0,2,,307.1,M,41.1,M,,*47
$GPGSA,A,1,,,,,,,,,,,,,,,*1E
$GPGSV,3,1,12,23,86,239,,20,66,091,,13,44,235,20,04,34,307,*76
$GPGSV,3,2,12,11,24,174,17,25,24,178,22,31,21,043,,17,18,252,27*7F
$GPGSV,3,3,12,07,06,186,,32,05,099,,02,03,321,,27,02,191,*7F
$GPRMC,113500.200,V,4729.7141,N,01902.5896,E,0.01,0.00,220408,,,N*7C
$GPGGA,113500.400,4729.7142,N,01902.5893,E,0,2,,307.1,M,41.1,M,,*47
$GPRMC,113500.400,V,4729.7142,N,01902.5893,E,0.01,0.00,220408,,,N*7C
$GPGGA,113500.600,4729.7137,N,01902.5908,E,0,2,,307.1,M,41.1,M,,*44
$GPRMC,113500.600,V,4729.7137,N,01902.5908,E,0.01,0.00,220408,,,N*7F
$GPGGA,113500.800,4729.7136,N,01902.5911,E,0,2,,307.1,M,41.1,M,,*43
$GPGSA,A,1,,,,,,,,,,,,,,,*1E
$GPGSV,3,1,12,23,86,239,,20,66,091,,13,44,235,20,04,34,307,*76
$GPGSV,3,2,12,11,24,174,17,25,24,178,22,31,21,043,,17,18,252,27*7F
$GPGSV,3,3,12,07,06,186,,32,05,099,,02,03,321,,27,02,191,*7F
$GPRMC,113500.800,V,4729.7136,N,01902.5911,E,0.01,0.00,220408,,,N*78
$GPGGA,113501.000,4729.7123,N,01902.5939,E,0,2,,307.1,M,41.1,M,,*44
$GPRMC,113501.000,V,4729.7123,N,01902.5939,E,0.01,0.00,220408,,,N*7F
$GPGGA,113501.200,4729.7120,N,01902.5940,E,0,2,,307.1,M,41.1,M,,*4B
$GPRMC,113501.200,V,4729.7120,N,01902.5940,E,0.01,0.00,220408,,,N*70
$GPGGA,113501.400,4729.7121,N,01902.5939,E,0,2,,307.1,M,41.1,M,,*42
$GPGSA,A,1,,,,,,,,,,,,,,,*1E
$GPGSV,3,1,12,23,86,239,,20,66,091,,13,44,235,20,04,34,307,*76
$GPGSV,3,2,12,11,24,174,18,25,24,178,24,31,21,043,,17,18,252,27*76
$GPGSV,3,3,12,07,06,186,,32,05,099,,02,03,321,,27,02,191,*7F
$GPRMC,113501.400,V,4729.7121,N,01902.5939,E,0.01,0.00,220408,,,N*79
$GPGGA,113501.600,4729.7122,N,01902.5938,E,0,2,,307.1,M,41.1,M,,*42
$GPRMC,113501.600,V,4729.7122,N,01902.5938,E,0.01,0.00,220408,,,N*79
$GPGGA,113501.800,4729.7126,N,01902.5925,E,0,2,,307.1,M,41.1,M,,*44
$GPRMC,113501.800,V,4729.7126,N,01902.5925,E,0.01,0.00,220408,,,N*7F
$GPGGA,113502.000,4729.7118,N,01902.5942,E,0,2,,307.1,M,41.1,M,,*43
$GPGSA,A,1,,,,,,,,,,,,,,,*1E
$GPGSV,3,1,12,23,86,239,,20,66,091,,13,44,235,20,04,34,307,*76
$GPGSV,3,2,12,11,24,174,18,25,24,178,22,31,21,043,,17,18,252,27*70
$GPGSV,3,3,12,07,06,186,,32,05,099,,02,03,321,,27,02,191,*7F
$GPRMC,113502.000,V,4729.7118,N,01902.5942,E,0.01,0.00,220408,,,N*78
$GPGGA,113502.200,4729.7131,N,01902.5909,E,0,2,,307.1,M,41.1,M,,*45
$GPRMC,113502.200,V,4729.7131,N,01902.5909,E,0.01,0.00,220408,,,N*7E
$GPGGA,113502.400,4729.7120,N,01902.5932,E,0,2,,307.1,M,41.1,M,,*4B
$GPRMC,113502.400,V,4729.7120,N,01902.5932,E,0.01,0.00,220408,,,N*70
$GPGGA,113502.600,4729.7131,N,01902.5903,E,0,2,,307.1,M,41.1,M,,*4B
$GPGSA,A,1,,,,,,,,,,,,,,,*1E
...